createdAt,value
2023-08-04T00:00:29.556Z,49.12
2023-08-04T00:01:01.142Z,49.24
2023-08-04T00:01:32.626Z,49.02
2023-08-04T00:02:04.285Z,49.42
2023-08-04T00:02:35.952Z,49.45
2023-08-04T00:03:07.661Z,49.56
2023-08-04T00:03:39.168Z,49.33
2023-08-04T00:04:10.697Z,49.44
2023-08-04T00:04:42.182Z,49.58
2023-08-04T00:05:13.692Z,49.61
2023-08-04T00:05:45.134Z,49.61
2023-08-04T00:06:16.521Z,49.75
2023-08-04T00:06:47.913Z,49.43
2023-08-04T00:07:19.356Z,49.76
2023-08-04T00:07:50.811Z,49.58
2023-08-04T00:08:22.343Z,49.68
2023-08-04T00:08:53.794Z,49.65
2023-08-04T00:09:25.215Z,49.64
2023-08-04T00:09:56.667Z,49.81
2023-08-04T00:10:28.080Z,49.48
2023-08-04T00:10:59.470Z,49.62
2023-08-04T00:11:30.885Z,49.71
2023-08-04T00:12:02.372Z,49.58
2023-08-04T00:12:33.840Z,49.68
2023-08-04T00:13:05.297Z,49.41
2023-08-04T00:13:36.768Z,49.27
2023-08-04T00:14:08.227Z,49.44
2023-08-04T00:14:39.662Z,49.47
2023-08-04T00:15:11.092Z,49.44
2023-08-04T00:15:42.495Z,49.27
2023-08-04T00:16:13.998Z,49.57
2023-08-04T00:16:45.453Z,49.40
2023-08-04T00:17:16.895Z,49.41
2023-08-04T00:17:48.388Z,49.77
2023-08-04T00:18:19.887Z,49.46
2023-08-04T00:18:51.296Z,49.57
2023-08-04T00:19:22.727Z,49.59
2023-08-04T00:19:54.181Z,49.40
2023-08-04T00:20:25.610Z,49.36
2023-08-04T00:20:57.029Z,49.32
2023-08-04T00:21:28.618Z,49.31
2023-08-04T00:22:00.190Z,49.57
2023-08-04T00:22:31.706Z,49.34
2023-08-04T00:23:03.201Z,49.35
2023-08-04T00:23:34.681Z,49.50
2023-08-04T00:24:06.039Z,49.31
2023-08-04T00:24:37.496Z,49.24
2023-08-04T00:25:08.876Z,49.23
2023-08-04T00:25:40.279Z,49.30
2023-08-04T00:26:11.662Z,49.29
2023-08-04T00:26:43.104Z,49.23
2023-08-04T00:27:14.649Z,49.26
2023-08-04T00:27:46.135Z,49.37
2023-08-04T00:28:17.596Z,49.34
2023-08-04T00:28:49.002Z,49.44
2023-08-04T00:29:20.465Z,49.36
2023-08-04T00:29:51.896Z,49.04
2023-08-04T00:30:23.313Z,49.36
2023-08-04T00:30:54.743Z,49.45
2023-08-04T00:31:26.178Z,49.28
2023-08-04T00:31:57.696Z,49.41
2023-08-04T00:32:29.224Z,49.36
2023-08-04T00:33:00.815Z,49.08
2023-08-04T00:33:32.293Z,49.12
2023-08-04T00:34:03.679Z,49.02
2023-08-04T00:34:35.091Z,49.13
2023-08-04T00:35:06.497Z,49.20
2023-08-04T00:35:37.969Z,49.22
2023-08-04T00:36:09.452Z,49.23
2023-08-04T00:36:40.948Z,49.19
2023-08-04T00:37:12.394Z,49.23
2023-08-04T00:37:43.792Z,49.33
2023-08-04T00:38:15.221Z,49.29
2023-08-04T00:38:46.630Z,49.34
2023-08-04T00:39:18.111Z,49.31
2023-08-04T00:39:49.491Z,49.22
2023-08-04T00:40:20.885Z,49.36
2023-08-04T00:40:52.297Z,49.30
2023-08-04T00:41:23.805Z,49.35
2023-08-04T00:41:55.595Z,49.44
2023-08-04T00:42:27.103Z,49.19
2023-08-04T00:42:58.531Z,49.14
2023-08-04T00:43:30.006Z,49.40
2023-08-04T00:44:01.495Z,49.41
2023-08-04T00:44:32.943Z,49.47
2023-08-04T00:45:04.342Z,49.32
2023-08-04T00:45:35.820Z,49.46
2023-08-04T00:46:07.360Z,49.22
2023-08-04T00:46:38.844Z,49.17
2023-08-04T00:47:10.284Z,49.33
2023-08-04T00:47:41.810Z,49.48
2023-08-04T00:48:13.227Z,49.25
2023-08-04T00:48:44.659Z,49.47
2023-08-04T00:49:16.103Z,49.43
2023-08-04T00:49:47.664Z,49.59
2023-08-04T00:50:19.085Z,49.46
2023-08-04T00:50:50.635Z,49.42
2023-08-04T00:51:22.073Z,49.39
2023-08-04T00:51:53.623Z,49.43
2023-08-04T00:52:25.081Z,49.24
2023-08-04T00:52:56.600Z,49.37
2023-08-04T00:53:28.029Z,49.40
2023-08-04T00:53:59.455Z,49.48
2023-08-04T00:54:30.892Z,49.58
2023-08-04T00:55:02.339Z,49.55
2023-08-04T00:55:33.887Z,49.50
2023-08-04T00:56:05.372Z,49.43
2023-08-04T00:56:36.788Z,49.48
2023-08-04T00:57:08.218Z,49.42
2023-08-04T00:57:39.683Z,49.25
2023-08-04T00:58:11.139Z,49.60
2023-08-04T00:58:42.520Z,49.35
2023-08-04T00:59:14.016Z,49.52
2023-08-04T00:59:45.522Z,49.52
2023-08-04T01:00:17.014Z,49.60
2023-08-04T01:00:48.501Z,49.61
2023-08-04T01:01:19.936Z,49.59
2023-08-04T01:01:51.532Z,49.58
2023-08-04T01:02:23.166Z,49.42
2023-08-04T01:02:54.909Z,49.34
2023-08-04T01:03:26.458Z,49.64
2023-08-04T01:03:57.945Z,49.14
2023-08-04T01:04:29.451Z,49.49
2023-08-04T01:05:03.393Z,49.56
2023-08-04T01:05:35.942Z,49.53
2023-08-04T01:06:07.421Z,49.52
2023-08-04T01:06:38.856Z,49.81
2023-08-04T01:07:10.226Z,49.49
2023-08-04T01:07:41.608Z,49.43
2023-08-04T01:08:13.006Z,49.61
2023-08-04T01:08:44.428Z,49.69
2023-08-04T01:09:15.906Z,49.52
2023-08-04T01:09:47.324Z,49.68
2023-08-04T01:10:18.723Z,49.30
2023-08-04T01:10:50.136Z,49.60
2023-08-04T01:11:21.755Z,49.64
2023-08-04T01:11:53.186Z,49.54
2023-08-04T01:12:24.560Z,49.34
2023-08-04T01:12:55.999Z,49.48
2023-08-04T01:13:27.440Z,49.45
2023-08-04T01:13:58.873Z,49.31
2023-08-04T01:14:30.310Z,49.65
2023-08-04T01:15:01.808Z,49.77
2023-08-04T01:15:33.180Z,49.76
2023-08-04T01:16:04.900Z,49.43
2023-08-04T01:16:36.353Z,49.33
2023-08-04T01:17:07.761Z,49.25
2023-08-04T01:17:39.244Z,49.58
2023-08-04T01:18:10.712Z,49.57
2023-08-04T01:18:42.164Z,49.43
2023-08-04T01:19:13.659Z,49.55
2023-08-04T01:19:45.225Z,49.57
2023-08-04T01:20:16.577Z,49.68
2023-08-04T01:20:47.998Z,49.41
2023-08-04T01:21:19.533Z,49.63
2023-08-04T01:21:51.392Z,49.53
2023-08-04T01:22:22.905Z,49.73
2023-08-04T01:22:54.388Z,49.84
2023-08-04T01:23:25.836Z,49.51
2023-08-04T01:23:57.310Z,49.74
2023-08-04T01:24:28.826Z,49.70
2023-08-04T01:25:00.216Z,49.46
2023-08-04T01:25:31.651Z,49.73
2023-08-04T01:26:03.065Z,49.84
2023-08-04T01:26:34.531Z,49.45
2023-08-04T01:27:05.992Z,49.89
2023-08-04T01:27:37.454Z,49.89
2023-08-04T01:28:08.905Z,49.74
2023-08-04T01:28:40.392Z,49.59
2023-08-04T01:29:11.836Z,49.86
2023-08-04T01:29:43.267Z,49.76
2023-08-04T01:30:14.753Z,49.60
2023-08-04T01:30:46.182Z,49.82
2023-08-04T01:31:17.650Z,49.96
2023-08-04T01:31:49.179Z,49.86
2023-08-04T01:32:20.831Z,49.97
2023-08-04T01:32:52.355Z,49.96
2023-08-04T01:33:23.814Z,50.02
2023-08-04T01:33:55.248Z,49.95
2023-08-04T01:34:26.695Z,49.91
2023-08-04T01:34:58.138Z,50.04
2023-08-04T01:35:29.541Z,49.85
2023-08-04T01:36:00.986Z,50.06
2023-08-04T01:36:32.445Z,49.90
2023-08-04T01:37:03.845Z,49.87
2023-08-04T01:37:35.374Z,50.01
2023-08-04T01:38:07.133Z,50.05
2023-08-04T01:38:38.541Z,49.99
2023-08-04T01:39:10.025Z,49.88
2023-08-04T01:39:41.427Z,50.07
2023-08-04T01:40:12.857Z,49.84
2023-08-04T01:40:44.283Z,49.94
2023-08-04T01:41:15.694Z,50.10
2023-08-04T01:41:47.307Z,50.11
2023-08-04T01:42:18.938Z,50.21
2023-08-04T01:42:50.492Z,49.91
2023-08-04T01:43:21.909Z,49.96
2023-08-04T01:43:53.379Z,49.98
2023-08-04T01:44:24.799Z,49.97
2023-08-04T01:44:56.221Z,49.99
2023-08-04T01:45:27.673Z,49.91
2023-08-04T01:45:59.218Z,49.99
2023-08-04T01:46:30.705Z,49.98
2023-08-04T01:47:02.185Z,50.15
2023-08-04T01:47:33.600Z,49.86
2023-08-04T01:48:05.071Z,50.04
2023-08-04T01:48:36.487Z,50.12
2023-08-04T01:49:07.927Z,50.21
2023-08-04T01:49:39.379Z,50.17
2023-08-04T01:50:10.911Z,50.31
2023-08-04T01:50:42.458Z,50.37
2023-08-04T01:51:13.881Z,50.02
2023-08-04T01:51:45.532Z,50.22
2023-08-04T01:52:17.162Z,50.19
2023-08-04T01:52:48.609Z,50.12
2023-08-04T01:53:20.068Z,50.04
2023-08-04T01:53:51.527Z,50.25
2023-08-04T01:54:22.975Z,50.22
2023-08-04T01:54:54.439Z,50.16
2023-08-04T01:55:25.884Z,50.13
2023-08-04T01:55:57.321Z,50.23
2023-08-04T01:56:28.817Z,50.04
2023-08-04T01:57:00.280Z,50.13
2023-08-04T01:57:31.672Z,50.07
2023-08-04T01:58:03.055Z,50.18
2023-08-04T01:58:34.463Z,49.93
2023-08-04T01:59:05.899Z,50.20
2023-08-04T01:59:37.361Z,50.11
2023-08-04T02:00:08.786Z,50.11
2023-08-04T02:00:40.197Z,49.87
2023-08-04T02:01:11.692Z,50.19
2023-08-04T02:01:43.161Z,50.17
2023-08-04T02:02:14.649Z,50.00
2023-08-04T02:02:46.226Z,49.96
2023-08-04T02:03:17.783Z,49.93
2023-08-04T02:03:49.236Z,50.13
2023-08-04T02:04:20.709Z,50.30
2023-08-04T02:04:52.166Z,50.27
2023-08-04T02:05:23.602Z,50.33
2023-08-04T02:05:55.134Z,50.34
2023-08-04T02:06:26.549Z,50.30
2023-08-04T02:06:58.026Z,50.33
2023-08-04T02:07:29.475Z,50.31
2023-08-04T02:08:01.029Z,50.12
2023-08-04T02:08:32.474Z,50.35
2023-08-04T02:09:03.839Z,50.17
2023-08-04T02:09:35.243Z,50.19
2023-08-04T02:10:06.704Z,50.16
2023-08-04T02:10:38.184Z,50.17
2023-08-04T02:11:09.652Z,50.19
2023-08-04T02:11:41.085Z,50.16
2023-08-04T02:12:12.501Z,50.35
2023-08-04T02:12:43.985Z,50.50
2023-08-04T02:13:15.416Z,50.37
2023-08-04T02:13:46.876Z,50.15
2023-08-04T02:14:18.309Z,50.23
2023-08-04T02:14:49.715Z,50.44
2023-08-04T02:15:21.194Z,50.28
2023-08-04T02:15:52.672Z,50.23
2023-08-04T02:16:24.088Z,50.39
2023-08-04T02:16:55.579Z,50.13
2023-08-04T02:17:27.043Z,50.22
2023-08-04T02:17:58.513Z,50.27
2023-08-04T02:18:29.974Z,50.13
2023-08-04T02:19:01.350Z,50.13
2023-08-04T02:19:32.789Z,50.30
2023-08-04T02:20:04.276Z,50.30
2023-08-04T02:20:35.699Z,50.08
2023-08-04T02:21:07.126Z,50.04
2023-08-04T02:21:38.602Z,50.15
2023-08-04T02:22:10.152Z,49.95
2023-08-04T02:22:41.717Z,49.97
2023-08-04T02:23:13.146Z,49.96
2023-08-04T02:23:44.626Z,50.15
2023-08-04T02:24:16.068Z,50.22
2023-08-04T02:24:47.498Z,50.09
2023-08-04T02:25:18.903Z,50.18
2023-08-04T02:25:50.453Z,50.12
2023-08-04T02:26:21.846Z,50.19
2023-08-04T02:26:53.271Z,50.13
2023-08-04T02:27:24.686Z,50.02
2023-08-04T02:27:56.135Z,49.96
2023-08-04T02:28:27.542Z,50.09
2023-08-04T02:28:59.021Z,50.04
2023-08-04T02:29:30.416Z,50.20
2023-08-04T02:30:01.915Z,50.14
2023-08-04T02:30:33.465Z,50.08
2023-08-04T02:31:04.958Z,50.15
2023-08-04T02:31:36.407Z,49.70
2023-08-04T02:32:07.904Z,50.05
2023-08-04T02:32:39.312Z,50.15
2023-08-04T02:33:11.037Z,49.81
2023-08-04T02:33:42.648Z,50.13
2023-08-04T02:34:14.156Z,50.04
2023-08-04T02:34:45.662Z,49.71
2023-08-04T02:35:17.087Z,50.08
2023-08-04T02:35:48.513Z,50.14
2023-08-04T02:36:19.914Z,50.17
2023-08-04T02:36:51.448Z,50.02
2023-08-04T02:37:22.882Z,49.98
2023-08-04T02:37:54.419Z,49.72
2023-08-04T02:38:25.853Z,50.01
2023-08-04T02:38:57.279Z,50.15
2023-08-04T02:39:28.701Z,50.04
2023-08-04T02:40:00.165Z,50.23
2023-08-04T02:40:31.597Z,50.11
2023-08-04T02:41:03.034Z,50.23
2023-08-04T02:41:34.517Z,50.15
2023-08-04T02:42:05.985Z,50.01
2023-08-04T02:42:37.428Z,50.26
2023-08-04T02:43:08.884Z,50.20
2023-08-04T02:43:40.259Z,50.17
2023-08-04T02:44:11.848Z,50.22
2023-08-04T02:44:43.234Z,50.08
2023-08-04T02:45:15.034Z,50.20
2023-08-04T02:45:47.078Z,50.10
2023-08-04T02:46:18.517Z,50.29
2023-08-04T02:46:49.933Z,50.04
2023-08-04T02:47:21.413Z,50.18
2023-08-04T02:47:52.885Z,50.17
2023-08-04T02:48:24.295Z,50.26
2023-08-04T02:48:55.744Z,50.04
2023-08-04T02:49:27.159Z,50.17
2023-08-04T02:49:58.637Z,50.30
2023-08-04T02:50:30.160Z,50.37
2023-08-04T02:51:01.632Z,50.38
2023-08-04T02:51:33.137Z,50.46
2023-08-04T02:52:04.585Z,50.28
2023-08-04T02:52:36.112Z,50.30
2023-08-04T02:53:07.547Z,50.42
2023-08-04T02:53:38.999Z,50.47
2023-08-04T02:54:10.434Z,50.36
2023-08-04T02:54:41.873Z,50.44
2023-08-04T02:55:13.347Z,50.43
2023-08-04T02:55:44.777Z,50.39
2023-08-04T02:56:16.215Z,50.31
2023-08-04T02:56:47.654Z,50.44
2023-08-04T02:57:19.120Z,50.39
2023-08-04T02:57:50.688Z,50.54
2023-08-04T02:58:22.128Z,50.48
2023-08-04T02:58:53.590Z,50.59
2023-08-04T02:59:25.055Z,50.35
2023-08-04T02:59:56.500Z,50.46
2023-08-04T03:00:27.999Z,50.61
2023-08-04T03:00:59.516Z,50.61
2023-08-04T03:01:31.103Z,50.50
2023-08-04T03:02:02.614Z,50.66
2023-08-04T03:02:34.177Z,50.43
2023-08-04T03:03:05.860Z,50.77
2023-08-04T03:03:37.300Z,50.54
2023-08-04T03:04:08.708Z,50.58
2023-08-04T03:04:40.118Z,50.58
2023-08-04T03:05:11.569Z,50.58
2023-08-04T03:05:43.018Z,50.58
2023-08-04T03:06:14.474Z,50.44
2023-08-04T03:06:45.923Z,50.42
2023-08-04T03:07:17.322Z,50.43
2023-08-04T03:07:48.740Z,50.47
2023-08-04T03:08:20.209Z,50.38
2023-08-04T03:08:51.672Z,50.40
2023-08-04T03:09:23.113Z,50.42
2023-08-04T03:09:54.519Z,50.45
2023-08-04T03:10:25.995Z,50.47
2023-08-04T03:10:57.477Z,50.60
2023-08-04T03:11:28.914Z,50.56
2023-08-04T03:12:00.320Z,50.58
2023-08-04T03:12:31.738Z,50.80
2023-08-04T03:13:03.186Z,50.55
2023-08-04T03:13:34.628Z,50.61
2023-08-04T03:14:06.114Z,50.61
2023-08-04T03:14:37.512Z,50.52
2023-08-04T03:15:08.978Z,50.74
2023-08-04T03:15:40.493Z,50.64
2023-08-04T03:16:11.947Z,50.66
2023-08-04T03:16:43.447Z,50.62
2023-08-04T03:17:15.027Z,50.75
2023-08-04T03:17:46.530Z,50.51
2023-08-04T03:18:17.969Z,50.56
2023-08-04T03:18:49.365Z,50.80
2023-08-04T03:19:20.799Z,50.62
2023-08-04T03:19:52.277Z,50.71
2023-08-04T03:20:23.761Z,50.66
2023-08-04T03:20:55.191Z,50.65
2023-08-04T03:21:26.752Z,50.70
2023-08-04T03:21:58.131Z,50.73
2023-08-04T03:22:29.529Z,50.80
2023-08-04T03:23:01.001Z,50.59
2023-08-04T03:23:32.464Z,50.53
2023-08-04T03:24:03.878Z,50.55
2023-08-04T03:24:35.329Z,50.80
2023-08-04T03:25:06.757Z,50.57
2023-08-04T03:25:38.197Z,50.74
2023-08-04T03:26:09.584Z,50.83
2023-08-04T03:26:41.186Z,50.76
2023-08-04T03:27:12.669Z,50.93
2023-08-04T03:27:44.138Z,50.64
2023-08-04T03:28:15.740Z,50.66
2023-08-04T03:28:47.295Z,50.67
2023-08-04T03:29:18.789Z,50.66
2023-08-04T03:29:50.432Z,50.64
2023-08-04T03:30:22.024Z,50.60
2023-08-04T03:30:53.610Z,50.76
2023-08-04T03:31:25.167Z,50.78
2023-08-04T03:31:56.723Z,50.69
2023-08-04T03:32:28.284Z,50.71
2023-08-04T03:32:59.810Z,50.73
2023-08-04T03:33:31.446Z,50.85
2023-08-04T03:34:02.946Z,50.90
2023-08-04T03:34:34.458Z,50.70
2023-08-04T03:35:05.848Z,50.73
2023-08-04T03:35:37.337Z,50.73
2023-08-04T03:36:08.761Z,50.81
2023-08-04T03:36:40.252Z,50.65
2023-08-04T03:37:11.660Z,50.71
2023-08-04T03:37:43.102Z,50.67
2023-08-04T03:38:14.569Z,50.74
2023-08-04T03:38:45.978Z,50.72
2023-08-04T03:39:17.408Z,50.52
2023-08-04T03:39:49.041Z,50.71
2023-08-04T03:40:20.422Z,50.64
2023-08-04T03:40:51.885Z,50.77
2023-08-04T03:41:23.305Z,50.65
2023-08-04T03:41:54.764Z,50.66
2023-08-04T03:42:26.210Z,50.68
2023-08-04T03:42:57.604Z,50.94
2023-08-04T03:43:29.007Z,50.83
2023-08-04T03:44:00.426Z,50.83
2023-08-04T03:44:31.861Z,50.63
2023-08-04T03:45:03.368Z,50.66
2023-08-04T03:45:34.913Z,50.67
2023-08-04T03:46:06.373Z,50.65
2023-08-04T03:46:37.874Z,50.69
2023-08-04T03:47:09.328Z,50.72
2023-08-04T03:47:40.840Z,50.47
2023-08-04T03:48:12.339Z,50.89
2023-08-04T03:48:43.730Z,50.85
2023-08-04T03:49:15.227Z,50.82
2023-08-04T03:49:46.644Z,50.76
2023-08-04T03:50:18.217Z,50.91
2023-08-04T03:50:49.646Z,50.84
2023-08-04T03:51:21.082Z,50.64
2023-08-04T03:51:52.541Z,50.76
2023-08-04T03:52:23.952Z,50.79
2023-08-04T03:52:55.421Z,50.69
2023-08-04T03:53:26.812Z,50.82
2023-08-04T03:53:58.302Z,50.78
2023-08-04T03:54:29.716Z,50.66
2023-08-04T03:55:01.149Z,50.82
2023-08-04T03:55:32.603Z,50.69
2023-08-04T03:56:04.050Z,50.76
2023-08-04T03:56:35.498Z,50.57
2023-08-04T03:57:06.964Z,50.89
2023-08-04T03:57:38.433Z,50.78
2023-08-04T03:58:09.782Z,50.83
2023-08-04T03:58:41.223Z,50.62
2023-08-04T03:59:12.677Z,50.86
2023-08-04T03:59:44.105Z,50.81
2023-08-04T04:00:15.549Z,50.70
2023-08-04T04:00:46.982Z,50.79
2023-08-04T04:01:18.606Z,50.71
2023-08-04T04:01:50.597Z,50.70
2023-08-04T04:02:22.393Z,50.65
2023-08-04T04:02:53.882Z,50.90
2023-08-04T04:03:25.322Z,50.79
2023-08-04T04:03:56.787Z,50.67
2023-08-04T04:04:28.319Z,50.93
2023-08-04T04:04:59.748Z,50.77
2023-08-04T04:05:31.192Z,50.75
2023-08-04T04:06:02.646Z,50.80
2023-08-04T04:06:34.216Z,51.10
2023-08-04T04:07:05.671Z,50.88
2023-08-04T04:07:37.089Z,50.81
2023-08-04T04:08:08.480Z,50.84
2023-08-04T04:08:39.871Z,50.91
2023-08-04T04:09:11.285Z,50.76
2023-08-04T04:09:42.720Z,50.81
2023-08-04T04:10:14.183Z,50.73
2023-08-04T04:10:45.671Z,50.82
2023-08-04T04:11:17.147Z,50.81
2023-08-04T04:11:48.987Z,50.69
2023-08-04T04:12:20.672Z,50.63
2023-08-04T04:12:52.090Z,50.91
2023-08-04T04:13:23.553Z,50.72
2023-08-04T04:13:55.002Z,50.78
2023-08-04T04:14:26.423Z,50.70
2023-08-04T04:14:57.838Z,50.86
2023-08-04T04:15:29.276Z,50.93
2023-08-04T04:16:00.733Z,50.72
2023-08-04T04:16:32.228Z,50.79
2023-08-04T04:17:03.679Z,50.77
2023-08-04T04:17:35.112Z,50.92
2023-08-04T04:18:06.600Z,50.79
2023-08-04T04:18:38.066Z,50.98
2023-08-04T04:19:09.494Z,50.96
2023-08-04T04:19:40.953Z,50.65
2023-08-04T04:20:12.357Z,50.83
2023-08-04T04:20:43.853Z,50.76
2023-08-04T04:21:15.361Z,50.86
2023-08-04T04:21:47.030Z,50.85
2023-08-04T04:22:18.622Z,50.95
2023-08-04T04:22:50.028Z,50.79
2023-08-04T04:23:21.813Z,51.07
2023-08-04T04:23:53.226Z,51.00
2023-08-04T04:24:24.635Z,50.87
2023-08-04T04:24:56.053Z,50.67
2023-08-04T04:25:27.852Z,50.92
2023-08-04T04:25:59.297Z,50.79
2023-08-04T04:26:30.736Z,50.69
2023-08-04T04:27:02.141Z,50.77
2023-08-04T04:27:33.537Z,50.94
2023-08-04T04:28:04.982Z,50.69
2023-08-04T04:28:36.431Z,50.85
2023-08-04T04:29:07.854Z,50.87
2023-08-04T04:29:39.379Z,50.80
2023-08-04T04:30:10.860Z,50.85
2023-08-04T04:30:42.329Z,50.78
2023-08-04T04:31:13.897Z,50.95
2023-08-04T04:31:45.829Z,50.87
2023-08-04T04:32:17.518Z,50.75
2023-08-04T04:32:48.970Z,50.75
2023-08-04T04:33:22.611Z,50.68
2023-08-04T04:33:55.068Z,50.62
2023-08-04T04:34:26.630Z,50.76
2023-08-04T04:34:58.109Z,50.69
2023-08-04T04:35:29.618Z,50.73
2023-08-04T04:36:00.979Z,50.81
2023-08-04T04:36:32.500Z,50.84
2023-08-04T04:37:03.907Z,50.80
2023-08-04T04:37:35.348Z,50.78
2023-08-04T04:38:06.821Z,50.83
2023-08-04T04:38:38.234Z,50.91
2023-08-04T04:39:09.743Z,50.96
2023-08-04T04:39:41.217Z,50.94
2023-08-04T04:40:12.658Z,50.84
2023-08-04T04:40:44.081Z,50.81
2023-08-04T04:41:15.470Z,50.88
2023-08-04T04:41:47.175Z,50.68
2023-08-04T04:42:18.770Z,50.74
2023-08-04T04:42:50.333Z,50.87
2023-08-04T04:43:21.695Z,50.87
2023-08-04T04:43:53.154Z,50.76
2023-08-04T04:44:24.660Z,50.77
2023-08-04T04:44:56.045Z,50.72
2023-08-04T04:45:27.499Z,50.76
2023-08-04T04:45:58.958Z,50.84
2023-08-04T04:46:30.471Z,50.79
2023-08-04T04:47:01.965Z,51.08
2023-08-04T04:47:33.412Z,50.95
2023-08-04T04:48:04.882Z,51.00
2023-08-04T04:48:36.402Z,51.21
2023-08-04T04:49:07.877Z,51.04
2023-08-04T04:49:39.343Z,50.83
2023-08-04T04:50:10.824Z,51.03
2023-08-04T04:50:42.296Z,50.77
2023-08-04T04:51:13.742Z,50.74
2023-08-04T04:51:45.536Z,50.91
2023-08-04T04:52:17.298Z,50.80
2023-08-04T04:52:48.743Z,50.95
2023-08-04T04:53:20.200Z,51.02
2023-08-04T04:53:51.710Z,50.91
2023-08-04T04:54:23.207Z,51.02
2023-08-04T04:54:54.664Z,51.08
2023-08-04T04:55:26.051Z,50.94
2023-08-04T04:55:57.597Z,50.96
2023-08-04T04:56:29.011Z,50.84
2023-08-04T04:57:00.435Z,50.95
2023-08-04T04:57:31.934Z,50.83
2023-08-04T04:58:03.408Z,51.03
2023-08-04T04:58:34.872Z,51.17
2023-08-04T04:59:06.295Z,50.98
2023-08-04T04:59:37.787Z,51.16
2023-08-04T05:00:09.202Z,50.89
2023-08-04T05:00:40.622Z,51.03
2023-08-04T05:01:12.093Z,50.82
2023-08-04T05:01:43.586Z,50.88
2023-08-04T05:02:15.143Z,50.80
2023-08-04T05:02:46.607Z,51.07
2023-08-04T05:03:18.322Z,50.88
2023-08-04T05:03:49.858Z,51.06
2023-08-04T05:04:21.580Z,51.18
2023-08-04T05:04:53.010Z,51.00
2023-08-04T05:05:24.491Z,50.91
2023-08-04T05:05:55.924Z,50.84
2023-08-04T05:06:30.413Z,50.83
2023-08-04T05:07:02.466Z,51.03
2023-08-04T05:07:33.961Z,50.93
2023-08-04T05:08:05.401Z,51.10
2023-08-04T05:08:36.860Z,51.26
2023-08-04T05:09:08.374Z,51.05
2023-08-04T05:09:39.759Z,50.94
2023-08-04T05:10:11.224Z,51.12
2023-08-04T05:10:42.675Z,50.96
2023-08-04T05:11:14.137Z,51.19
2023-08-04T05:11:45.963Z,51.19
2023-08-04T05:12:17.675Z,50.98
2023-08-04T05:12:49.125Z,51.15
2023-08-04T05:13:20.557Z,50.86
2023-08-04T05:13:51.961Z,50.89
2023-08-04T05:14:23.418Z,50.98
2023-08-04T05:14:54.797Z,50.91
2023-08-04T05:15:26.296Z,51.12
2023-08-04T05:15:57.893Z,50.99
2023-08-04T05:16:29.342Z,50.86
2023-08-04T05:17:00.810Z,51.02
2023-08-04T05:17:32.339Z,50.92
2023-08-04T05:18:03.773Z,51.09
2023-08-04T05:18:35.257Z,51.01
2023-08-04T05:19:06.679Z,50.77
2023-08-04T05:19:38.109Z,50.82
2023-08-04T05:20:09.617Z,50.87
2023-08-04T05:20:41.090Z,50.81
2023-08-04T05:21:12.548Z,50.87
2023-08-04T05:21:44.051Z,50.98
2023-08-04T05:22:15.457Z,50.88
2023-08-04T05:22:46.956Z,50.77
2023-08-04T05:23:18.376Z,50.98
2023-08-04T05:23:49.790Z,50.78
2023-08-04T05:24:21.328Z,50.89
2023-08-04T05:25:05.280Z,50.98
2023-08-04T05:25:42.265Z,51.08
2023-08-04T05:26:13.663Z,50.90
2023-08-04T05:26:45.165Z,50.86
2023-08-04T05:27:16.600Z,50.49
2023-08-04T05:27:48.156Z,50.75
2023-08-04T05:28:19.597Z,50.83
2023-08-04T05:28:51.034Z,50.79
2023-08-04T05:29:22.442Z,50.64
2023-08-04T05:29:53.821Z,50.63
2023-08-04T05:30:25.250Z,50.65
2023-08-04T05:30:56.712Z,50.65
2023-08-04T05:31:28.612Z,50.55
2023-08-04T05:32:00.095Z,50.83
2023-08-04T05:32:31.611Z,50.73
2023-08-04T05:33:03.154Z,50.58
2023-08-04T05:33:34.619Z,50.54
2023-08-04T05:34:06.074Z,50.59
2023-08-04T05:34:37.515Z,50.72
2023-08-04T05:35:09.003Z,50.66
2023-08-04T05:35:40.476Z,50.56
2023-08-04T05:36:11.992Z,50.58
2023-08-04T05:36:43.443Z,50.54
2023-08-04T05:37:14.881Z,50.87
2023-08-04T05:37:46.254Z,50.62
2023-08-04T05:38:17.748Z,50.82
2023-08-04T05:38:49.170Z,50.95
2023-08-04T05:39:20.572Z,50.85
2023-08-04T05:39:51.986Z,50.77
2023-08-04T05:40:23.463Z,50.87
2023-08-04T05:40:55.047Z,50.84
2023-08-04T05:41:26.456Z,51.03
2023-08-04T05:41:57.981Z,50.61
2023-08-04T05:42:29.455Z,50.77
2023-08-04T05:43:00.874Z,50.89
2023-08-04T05:43:32.299Z,50.84
2023-08-04T05:44:03.754Z,50.90
2023-08-04T05:44:35.149Z,50.79
2023-08-04T05:45:06.627Z,50.87
2023-08-04T05:45:38.080Z,50.77
2023-08-04T05:46:09.712Z,50.82
2023-08-04T05:46:41.133Z,50.92
2023-08-04T05:47:12.582Z,50.78
2023-08-04T05:47:44.040Z,50.77
2023-08-04T05:48:15.506Z,50.82
2023-08-04T05:48:46.950Z,51.01
2023-08-04T05:49:18.392Z,50.95
2023-08-04T05:49:49.826Z,50.89
2023-08-04T05:50:21.442Z,51.09
2023-08-04T05:50:52.956Z,50.80
2023-08-04T05:51:24.415Z,50.88
2023-08-04T05:51:55.837Z,50.95
2023-08-04T05:52:27.274Z,50.91
2023-08-04T05:52:58.765Z,50.86
2023-08-04T05:53:30.310Z,50.76
2023-08-04T05:54:01.828Z,50.89
2023-08-04T05:54:33.249Z,51.06
2023-08-04T05:55:04.817Z,50.91
2023-08-04T05:55:36.260Z,50.78
2023-08-04T05:56:07.721Z,50.84
2023-08-04T05:56:39.162Z,51.01
2023-08-04T05:57:10.616Z,50.84
2023-08-04T05:57:42.054Z,51.01
2023-08-04T05:58:13.435Z,50.86
2023-08-04T05:58:44.898Z,50.63
2023-08-04T05:59:16.374Z,50.96
2023-08-04T05:59:47.799Z,50.74
2023-08-04T06:00:19.303Z,50.79
2023-08-04T06:00:50.743Z,50.84
2023-08-04T06:01:22.264Z,50.58
2023-08-04T06:01:53.693Z,50.68
2023-08-04T06:02:25.185Z,50.80
2023-08-04T06:02:56.659Z,50.79
2023-08-04T06:03:28.162Z,50.73
2023-08-04T06:03:59.706Z,50.59
2023-08-04T06:04:31.265Z,50.71
2023-08-04T06:05:02.714Z,50.74
2023-08-04T06:05:34.302Z,50.82
2023-08-04T06:06:05.720Z,50.81
2023-08-04T06:06:37.196Z,50.79
2023-08-04T06:07:08.588Z,50.73
2023-08-04T06:07:40.031Z,50.95
2023-08-04T06:08:11.500Z,50.79
2023-08-04T06:08:42.972Z,50.94
2023-08-04T06:09:14.418Z,50.87
2023-08-04T06:09:45.859Z,50.85
2023-08-04T06:10:17.369Z,50.70
2023-08-04T06:10:48.887Z,50.86
2023-08-04T06:11:20.299Z,50.78
2023-08-04T06:11:51.729Z,50.87
2023-08-04T06:12:23.144Z,50.89
2023-08-04T06:12:54.644Z,50.70
2023-08-04T06:13:26.110Z,50.89
2023-08-04T06:13:57.576Z,50.94
2023-08-04T06:14:29.010Z,50.77
2023-08-04T06:15:00.513Z,51.06
2023-08-04T06:15:31.937Z,50.91
2023-08-04T06:16:03.629Z,51.10
2023-08-04T06:16:35.137Z,50.83
2023-08-04T06:17:06.576Z,50.79
2023-08-04T06:17:38.070Z,50.42
2023-08-04T06:18:09.699Z,50.60
2023-08-04T06:18:41.182Z,50.72
2023-08-04T06:19:12.596Z,50.51
2023-08-04T06:19:44.090Z,50.45
2023-08-04T06:20:15.492Z,50.29
2023-08-04T06:20:46.988Z,50.46
2023-08-04T06:21:18.407Z,50.61
2023-08-04T06:21:50.175Z,50.70
2023-08-04T06:22:21.813Z,50.56
2023-08-04T06:22:53.286Z,50.63
2023-08-04T06:23:24.687Z,50.72
2023-08-04T06:23:56.127Z,50.96
2023-08-04T06:24:27.565Z,50.87
2023-08-04T06:24:58.968Z,50.78
2023-08-04T06:25:30.374Z,50.91
2023-08-04T06:26:01.775Z,51.05
2023-08-04T06:26:33.417Z,50.96
2023-08-04T06:27:04.888Z,50.79
2023-08-04T06:27:36.308Z,51.08
2023-08-04T06:28:07.822Z,50.96
2023-08-04T06:28:39.265Z,50.95
2023-08-04T06:29:10.715Z,50.87
2023-08-04T06:29:42.132Z,50.94
2023-08-04T06:30:13.586Z,50.98
2023-08-04T06:30:45.070Z,51.02
2023-08-04T06:31:16.559Z,51.20
2023-08-04T06:31:49.457Z,51.04
2023-08-04T06:32:23.120Z,51.11
2023-08-04T06:32:54.591Z,51.11
2023-08-04T06:33:26.089Z,51.10
2023-08-04T06:33:57.567Z,51.19
2023-08-04T06:34:28.977Z,51.11
2023-08-04T06:35:00.540Z,51.17
2023-08-04T06:35:32.023Z,51.02
2023-08-04T06:36:03.663Z,51.27
2023-08-04T06:36:35.101Z,51.16
2023-08-04T06:37:06.542Z,51.10
2023-08-04T06:37:38.044Z,51.14
2023-08-04T06:38:09.560Z,51.05
2023-08-04T06:38:41.036Z,51.35
2023-08-04T06:39:12.446Z,51.33
2023-08-04T06:39:43.825Z,51.15
2023-08-04T06:40:15.259Z,51.34
2023-08-04T06:40:46.672Z,51.24
2023-08-04T06:41:18.092Z,51.08
2023-08-04T06:41:49.754Z,51.21
2023-08-04T06:42:21.455Z,51.48
2023-08-04T06:42:52.951Z,51.29
2023-08-04T06:43:24.395Z,51.22
2023-08-04T06:43:55.853Z,51.17
2023-08-04T06:44:27.296Z,51.14
2023-08-04T06:44:58.799Z,51.24
2023-08-04T06:45:30.260Z,51.23
2023-08-04T06:46:01.869Z,51.36